createdAt,value
2023-04-17T00:02:25.711Z,99.90
2023-04-17T00:04:54.291Z,99.90
2023-04-17T00:07:22.746Z,99.90
2023-04-17T00:09:50.781Z,99.90
2023-04-17T00:12:17.992Z,99.90
2023-04-17T00:14:44.903Z,99.90
2023-04-17T00:17:14.883Z,99.90
2023-04-17T00:19:42.462Z,99.90
2023-04-17T00:22:09.385Z,99.90
2023-04-17T00:24:40.036Z,99.90
2023-04-17T00:27:07.146Z,99.90
2023-04-17T00:29:34.241Z,99.90
2023-04-17T00:32:01.793Z,99.90
2023-04-17T00:34:28.817Z,99.90
2023-04-17T00:36:56.692Z,99.90
2023-04-17T00:39:23.638Z,99.90
2023-04-17T00:41:50.762Z,99.90
2023-04-17T00:44:18.074Z,99.90
2023-04-17T00:46:45.621Z,99.90
2023-04-17T00:49:12.683Z,99.90
2023-04-17T00:51:40.066Z,99.90
2023-04-17T00:54:08.280Z,99.90
2023-04-17T00:56:35.259Z,99.90
2023-04-17T00:59:04.354Z,99.90
2023-04-17T01:01:31.266Z,99.90
2023-04-17T01:04:00.175Z,99.90
2023-04-17T01:06:27.569Z,99.90
2023-04-17T01:08:54.931Z,99.90
2023-04-17T01:11:22.191Z,99.90
2023-04-17T01:13:50.355Z,99.90
2023-04-17T01:16:17.923Z,99.90
2023-04-17T01:18:44.947Z,99.90
2023-04-17T01:21:12.557Z,99.90
2023-04-17T01:23:47.238Z,99.90
2023-04-17T01:26:18.493Z,99.90
2023-04-17T01:28:53.470Z,99.90
2023-04-17T01:31:21.286Z,99.90
2023-04-17T01:33:48.963Z,99.90
2023-04-17T01:36:16.724Z,99.90
2023-04-17T01:38:44.080Z,99.90
2023-04-17T01:41:11.844Z,99.90
2023-04-17T01:43:41.884Z,99.90
2023-04-17T01:46:09.700Z,99.90
2023-04-17T01:48:37.094Z,99.90
2023-04-17T01:51:04.483Z,99.90
2023-04-17T01:53:32.619Z,99.90
2023-04-17T01:56:03.077Z,99.90
2023-04-17T01:58:31.346Z,99.90
2023-04-17T02:00:59.416Z,99.90
2023-04-17T02:03:26.486Z,99.90
2023-04-17T02:05:53.839Z,99.90
2023-04-17T02:08:20.763Z,99.90
2023-04-17T02:10:47.679Z,99.90
2023-04-17T02:13:15.436Z,99.90
2023-04-17T02:15:42.708Z,99.90
2023-04-17T02:18:09.844Z,99.90
2023-04-17T02:20:37.278Z,99.90
2023-04-17T02:23:06.096Z,99.90
2023-04-17T02:25:33.861Z,99.90
2023-04-17T02:28:01.122Z,99.90
2023-04-17T02:30:28.335Z,99.90
2023-04-17T02:32:56.257Z,99.90
2023-04-17T02:35:26.179Z,99.90
2023-04-17T02:37:53.910Z,99.90
2023-04-17T02:40:21.286Z,99.90
2023-04-17T02:42:48.161Z,99.90
2023-04-17T02:45:15.685Z,99.90
2023-04-17T02:47:42.834Z,99.90
2023-04-17T02:50:10.318Z,99.90
2023-04-17T02:52:37.251Z,99.90
2023-04-17T02:55:04.516Z,99.90
2023-04-17T02:57:31.684Z,99.90
2023-04-17T02:59:59.234Z,99.90
2023-04-17T03:02:26.621Z,99.90
2023-04-17T03:04:53.816Z,99.90
2023-04-17T03:07:23.685Z,99.90
2023-04-17T03:09:53.596Z,99.90
2023-04-17T03:12:20.727Z,99.90
2023-04-17T03:14:47.787Z,99.90
2023-04-17T03:17:15.501Z,99.90
2023-04-17T03:19:43.033Z,99.90
2023-04-17T03:22:13.187Z,99.90
2023-04-17T03:24:41.371Z,99.90
2023-04-17T03:27:08.302Z,99.90
2023-04-17T03:29:35.344Z,99.90
2023-04-17T03:32:02.735Z,99.90
2023-04-17T03:34:31.599Z,99.90
2023-04-17T03:36:59.229Z,99.90
2023-04-17T03:39:26.599Z,99.90
2023-04-17T03:41:53.462Z,99.90
2023-04-17T03:44:20.930Z,99.90
2023-04-17T03:46:47.782Z,99.90
2023-04-17T03:49:14.823Z,99.90
2023-04-17T03:51:42.795Z,99.90
2023-04-17T03:54:09.975Z,99.90
2023-04-17T03:56:36.963Z,99.90
2023-04-17T03:59:04.762Z,99.90
2023-04-17T04:01:32.894Z,99.90
2023-04-17T04:04:01.070Z,99.90
2023-04-17T04:06:29.839Z,99.90
2023-04-17T04:08:57.574Z,99.90
2023-04-17T04:11:24.568Z,99.90
2023-04-17T04:13:51.513Z,99.90
2023-04-17T04:16:18.497Z,99.90
2023-04-17T04:18:45.516Z,99.90
2023-04-17T04:21:12.736Z,99.90
2023-04-17T04:23:41.430Z,99.90
2023-04-17T04:26:08.475Z,99.90
2023-04-17T04:28:35.443Z,99.90
2023-04-17T04:31:03.029Z,99.90
2023-04-17T04:33:30.420Z,99.90
2023-04-17T04:36:01.367Z,99.90
2023-04-17T04:38:32.740Z,99.90
2023-04-17T04:41:06.260Z,99.90
2023-04-17T04:43:34.093Z,99.90
2023-04-17T04:46:01.608Z,99.90
2023-04-17T04:48:28.996Z,99.90
2023-04-17T04:50:56.438Z,99.90
2023-04-17T04:53:23.410Z,99.90
2023-04-17T04:55:50.441Z,99.90
2023-04-17T04:58:17.344Z,99.90
2023-04-17T05:00:44.457Z,99.90
2023-04-17T05:03:11.657Z,99.90
2023-04-17T05:05:40.292Z,99.90
2023-04-17T05:08:07.329Z,99.90
2023-04-17T05:10:34.421Z,99.90
2023-04-17T05:13:01.287Z,99.90
2023-04-17T05:15:31.064Z,99.90
2023-04-17T05:17:58.020Z,99.90
2023-04-17T05:20:26.390Z,99.90
2023-04-17T05:22:53.609Z,99.90
2023-04-17T05:25:20.894Z,99.90
2023-04-17T05:27:47.893Z,99.90
2023-04-17T05:30:15.500Z,99.90
2023-04-17T05:32:42.674Z,99.90
2023-04-17T05:35:09.927Z,99.90
2023-04-17T05:37:36.967Z,99.90
2023-04-17T05:40:07.246Z,99.90
2023-04-17T05:42:35.410Z,99.90
2023-04-17T05:45:03.010Z,99.90
2023-04-17T05:47:30.085Z,99.90
2023-04-17T05:49:58.756Z,99.90
2023-04-17T05:52:25.778Z,99.90
2023-04-17T05:54:52.797Z,99.90
2023-04-17T05:57:20.193Z,99.90
2023-04-17T05:59:47.340Z,99.90
2023-04-17T06:02:14.286Z,99.90
2023-04-17T06:04:41.785Z,99.90
2023-04-17T06:07:11.060Z,99.90
2023-04-17T06:09:38.795Z,99.90
2023-04-17T06:12:05.897Z,99.90
2023-04-17T06:14:35.354Z,99.90
2023-04-17T06:17:02.365Z,99.90
2023-04-17T06:19:29.726Z,99.90
2023-04-17T06:21:57.531Z,99.90
2023-04-17T06:24:24.768Z,99.90
2023-04-17T06:26:51.634Z,99.90
2023-04-17T06:29:18.706Z,99.90
2023-04-17T06:31:46.739Z,99.90
2023-04-17T06:34:13.623Z,99.90
2023-04-17T06:36:41.180Z,99.90
2023-04-17T06:39:08.103Z,99.90
2023-04-17T06:41:35.723Z,99.90
2023-04-17T06:44:03.076Z,99.90
2023-04-17T06:46:30.118Z,99.90
2023-04-17T06:48:59.563Z,99.90
2023-04-17T06:51:28.941Z,99.90
2023-04-17T06:53:55.838Z,99.90
2023-04-17T06:56:24.412Z,99.90
2023-04-17T06:58:52.545Z,99.90
2023-04-17T07:01:19.939Z,99.90
2023-04-17T07:03:47.790Z,99.90
2023-04-17T07:06:14.959Z,99.90
2023-04-17T07:08:41.899Z,99.90
2023-04-17T07:11:08.822Z,99.90
2023-04-17T07:13:35.671Z,99.90
2023-04-17T07:16:04.033Z,99.90
2023-04-17T07:18:31.460Z,99.90
2023-04-17T07:20:58.692Z,99.90
2023-04-17T07:23:25.943Z,99.90
2023-04-17T07:25:52.948Z,99.90
2023-04-17T07:28:20.206Z,99.90
2023-04-17T07:30:47.316Z,99.90
2023-04-17T07:33:14.834Z,99.90
2023-04-17T07:35:43.069Z,99.90
2023-04-17T07:38:10.039Z,99.90
2023-04-17T07:40:36.978Z,99.90
2023-04-17T07:43:04.776Z,99.90
2023-04-17T07:45:31.872Z,99.90
2023-04-17T07:47:58.833Z,99.90
2023-04-17T07:50:25.827Z,99.90
2023-04-17T07:52:52.689Z,99.90
2023-04-17T07:55:20.129Z,99.90
2023-04-17T07:57:47.534Z,99.90
2023-04-17T08:00:15.153Z,99.90
2023-04-17T08:02:45.145Z,99.90
2023-04-17T08:05:12.818Z,99.90
2023-04-17T08:07:41.455Z,99.90
2023-04-17T08:10:08.696Z,99.90
2023-04-17T08:12:36.442Z,99.90
2023-04-17T08:15:03.659Z,99.90
2023-04-17T08:17:31.097Z,99.90
2023-04-17T08:19:58.155Z,99.90
2023-04-17T08:22:28.835Z,99.90
2023-04-17T08:24:58.939Z,99.90
2023-04-17T08:27:26.024Z,99.90
2023-04-17T08:29:56.698Z,99.90
2023-04-17T08:32:23.674Z,99.90
2023-04-17T08:34:50.659Z,99.90
2023-04-17T08:37:17.616Z,99.90
2023-04-17T08:39:44.477Z,99.90
2023-04-17T08:42:14.776Z,99.90
2023-04-17T08:44:44.762Z,99.90
2023-04-17T08:47:13.486Z,99.90
2023-04-17T08:49:43.937Z,99.90
2023-04-17T08:52:12.193Z,99.90
2023-04-17T08:54:39.686Z,99.90
2023-04-17T08:57:06.852Z,99.90
2023-04-17T08:59:33.969Z,99.90
2023-04-17T09:02:02.248Z,99.90
2023-04-17T09:04:42.333Z,99.90
2023-04-17T09:07:11.789Z,99.90
2023-04-17T09:09:52.022Z,99.90
2023-04-17T09:12:26.104Z,99.90
2023-04-17T09:14:53.419Z,99.90
2023-04-17T09:17:21.746Z,99.90
2023-04-17T09:20:12.021Z,99.90
2023-04-17T09:22:40.410Z,99.90
2023-04-17T09:25:18.242Z,99.90
2023-04-17T09:27:46.414Z,99.90
2023-04-17T09:30:13.920Z,99.90
2023-04-17T09:32:41.027Z,90.20
2023-04-17T09:35:08.344Z,95.10
2023-04-17T09:37:53.030Z,91.60
2023-04-17T09:40:21.561Z,91.70
2023-04-17T09:43:04.092Z,90.10
2023-04-17T09:45:35.804Z,82.50
2023-04-17T09:48:13.640Z,99.50
2023-04-17T09:50:40.992Z,99.90
2023-04-17T09:53:09.106Z,99.90
2023-04-17T09:55:38.198Z,99.90
2023-04-17T09:58:07.601Z,99.90
2023-04-17T10:00:36.588Z,95.60
2023-04-17T10:03:03.986Z,94.00
2023-04-17T10:05:32.565Z,99.90
2023-04-17T10:07:59.979Z,93.40
2023-04-17T10:10:31.193Z,95.50
2023-04-17T10:13:00.709Z,82.20
2023-04-17T10:15:28.619Z,68.80
2023-04-17T10:17:58.885Z,63.00
2023-04-17T10:20:28.339Z,75.10
2023-04-17T10:22:56.273Z,72.80
2023-04-17T10:25:28.333Z,62.40
2023-04-17T10:28:00.867Z,52.40
2023-04-17T10:30:56.893Z,56.50
2023-04-17T10:33:26.111Z,42.90
2023-04-17T10:35:53.570Z,45.60
2023-04-17T10:38:36.642Z,48.90
2023-04-17T10:41:09.376Z,47.80
2023-04-17T10:43:41.016Z,33.60
2023-04-17T10:46:12.915Z,39.30
2023-04-17T10:48:53.031Z,25.70
2023-04-17T10:51:27.112Z,29.10
2023-04-17T10:53:58.266Z,25.10
2023-04-17T10:56:30.909Z,29.20
2023-04-17T10:59:09.547Z,15.10
2023-04-17T11:01:58.335Z,4.00
2023-04-17T11:04:31.256Z,1.00
2023-04-17T11:06:58.958Z,1.00
2023-04-17T11:09:28.260Z,1.00
2023-04-17T11:11:58.543Z,1.00
2023-04-17T11:14:26.601Z,1.00
2023-04-17T11:16:53.580Z,1.00
2023-04-17T11:19:25.199Z,1.00
2023-04-17T11:21:54.036Z,1.00
2023-04-17T11:24:26.989Z,1.00
2023-04-17T11:26:54.872Z,1.00
2023-04-17T11:29:23.246Z,1.00
2023-04-17T11:31:52.545Z,1.00
2023-04-17T11:34:20.127Z,1.00
2023-04-17T11:36:51.509Z,1.00
2023-04-17T11:39:20.203Z,1.00
2023-04-17T11:41:47.388Z,1.00
2023-04-17T11:44:15.623Z,1.00
2023-04-17T11:46:42.709Z,1.00
2023-04-17T11:49:10.154Z,1.00
2023-04-17T11:51:37.264Z,1.00
2023-04-17T11:54:04.209Z,1.00
2023-04-17T11:56:31.418Z,1.00
2023-04-17T11:58:59.518Z,1.00
2023-04-17T12:01:28.155Z,1.00
2023-04-17T12:03:59.391Z,1.00
2023-04-17T12:06:38.521Z,1.00
2023-04-17T12:09:07.171Z,1.00
2023-04-17T12:11:34.855Z,1.00
2023-04-17T12:14:03.886Z,1.00
2023-04-17T12:16:31.729Z,1.00
2023-04-17T12:18:58.802Z,1.00
2023-04-17T12:21:25.816Z,1.00
2023-04-17T12:23:52.877Z,1.00
2023-04-17T12:26:19.774Z,1.00
2023-04-17T12:28:46.800Z,1.00
2023-04-17T12:31:13.802Z,1.00
2023-04-17T12:33:41.564Z,1.00
2023-04-17T12:36:09.092Z,1.00
2023-04-17T12:38:36.201Z,1.00
2023-04-17T12:41:03.756Z,1.00
2023-04-17T12:43:33.179Z,1.00
2023-04-17T12:46:00.160Z,1.00
2023-04-17T12:48:27.430Z,1.00
2023-04-17T12:50:54.622Z,1.00
2023-04-17T12:53:21.719Z,1.00
2023-04-17T12:55:48.638Z,1.00
2023-04-17T12:58:16.045Z,1.00
2023-04-17T13:00:44.431Z,1.00
2023-04-17T13:03:12.187Z,1.00
2023-04-17T13:05:39.688Z,1.00
2023-04-17T13:08:06.633Z,1.00
2023-04-17T13:10:34.398Z,1.00
2023-04-17T13:13:02.428Z,1.00
2023-04-17T13:15:29.428Z,1.00
2023-04-17T13:17:56.374Z,1.00
2023-04-17T13:20:23.347Z,1.00
2023-04-17T13:22:50.226Z,1.00
2023-04-17T13:25:17.281Z,1.00
2023-04-17T13:27:44.279Z,1.00
2023-04-17T13:30:12.435Z,1.00
2023-04-17T13:32:40.729Z,1.00
2023-04-17T13:35:13.226Z,1.00
2023-04-17T13:37:41.405Z,1.00
2023-04-17T13:40:12.114Z,1.00
2023-04-17T13:42:39.086Z,1.00
2023-04-17T13:45:07.837Z,1.00
2023-04-17T13:47:34.783Z,1.00
2023-04-17T13:50:01.812Z,1.00
2023-04-17T13:52:29.041Z,1.00
2023-04-17T13:54:56.067Z,1.00
2023-04-17T13:57:22.952Z,1.00
2023-04-17T13:59:49.879Z,1.00
2023-04-17T14:02:16.984Z,1.00
2023-04-17T14:04:44.832Z,1.00
2023-04-17T14:07:12.957Z,1.00
2023-04-17T14:09:39.906Z,1.00
2023-04-17T14:12:06.969Z,1.00
2023-04-17T14:14:34.775Z,1.00
2023-04-17T14:17:01.907Z,1.00
2023-04-17T14:19:29.515Z,1.00
2023-04-17T14:21:56.497Z,1.00
2023-04-17T14:24:24.504Z,1.00
2023-04-17T14:26:51.416Z,1.00
2023-04-17T14:29:18.355Z,1.00
2023-04-17T14:31:46.226Z,1.00
2023-04-17T14:34:13.308Z,1.00
2023-04-17T14:36:41.526Z,1.00
2023-04-17T14:39:10.018Z,1.00
2023-04-17T14:41:37.155Z,1.00
2023-04-17T14:44:04.318Z,1.00
2023-04-17T14:46:32.009Z,1.00
2023-04-17T14:48:59.053Z,1.00
2023-04-17T14:51:27.117Z,1.00
2023-04-17T14:53:54.959Z,1.00
2023-04-17T14:56:22.314Z,1.00
2023-04-17T14:58:49.463Z,1.00
2023-04-17T15:01:16.498Z,1.00
2023-04-17T15:03:46.705Z,1.00
2023-04-17T15:06:16.125Z,1.00
2023-04-17T15:08:43.228Z,1.00
2023-04-17T15:11:11.095Z,1.00
2023-04-17T15:13:40.080Z,1.00
2023-04-17T15:16:09.852Z,1.00
2023-04-17T15:18:39.610Z,1.00
2023-04-17T15:21:07.113Z,1.00
2023-04-17T15:23:34.824Z,1.00
2023-04-17T15:26:02.258Z,1.00
2023-04-17T15:28:29.385Z,1.00
2023-04-17T15:30:57.220Z,1.00
2023-04-17T15:33:24.515Z,1.00
2023-04-17T15:35:58.676Z,1.00
2023-04-17T15:38:27.056Z,1.00
2023-04-17T15:40:54.790Z,1.00
2023-04-17T15:43:22.569Z,1.00
2023-04-17T15:45:50.212Z,1.00
2023-04-17T15:48:17.316Z,1.00
2023-04-17T15:50:44.441Z,1.00
2023-04-17T15:53:13.170Z,1.00
2023-04-17T15:55:41.397Z,1.00
2023-04-17T15:58:08.532Z,1.00
2023-04-17T16:00:35.546Z,1.00
2023-04-17T16:03:03.964Z,1.00
2023-04-17T16:05:31.005Z,1.00
2023-04-17T16:07:58.747Z,1.00
2023-04-17T16:10:25.868Z,1.00
2023-04-17T16:12:52.774Z,1.00
2023-04-17T16:15:20.702Z,1.00
2023-04-17T16:17:48.882Z,1.00
2023-04-17T16:20:16.227Z,1.00
2023-04-17T16:22:43.118Z,1.00
2023-04-17T16:25:13.529Z,1.00
2023-04-17T16:27:41.645Z,1.00
2023-04-17T16:30:11.809Z,1.00
2023-04-17T16:32:38.840Z,1.00
2023-04-17T16:35:07.425Z,1.00
2023-04-17T16:37:34.959Z,1.00
2023-04-17T16:40:04.901Z,1.00
2023-04-17T16:42:33.401Z,1.00
2023-04-17T16:45:00.592Z,1.00
2023-04-17T16:47:30.566Z,1.00
2023-04-17T16:49:58.226Z,1.00
2023-04-17T16:52:25.661Z,1.00
2023-04-17T16:54:52.545Z,1.00
2023-04-17T16:57:20.169Z,1.00
2023-04-17T16:59:47.052Z,1.00
2023-04-17T17:02:14.217Z,1.00
2023-04-17T17:04:41.459Z,1.00
2023-04-17T17:07:08.414Z,1.00
2023-04-17T17:09:35.665Z,99.90
2023-04-17T17:12:03.364Z,99.90
2023-04-17T17:14:30.334Z,99.90
2023-04-17T17:16:57.319Z,99.90
2023-04-17T17:19:24.322Z,99.90
2023-04-17T17:21:51.271Z,99.90
2023-04-17T17:24:18.152Z,99.90
2023-04-17T17:26:45.048Z,99.90
2023-04-17T17:29:12.129Z,99.90
2023-04-17T17:31:39.447Z,1.00
2023-04-17T17:34:22.611Z,99.90
2023-04-17T17:36:53.269Z,99.90
2023-04-17T17:39:22.014Z,99.90
2023-04-17T17:41:49.406Z,99.90
2023-04-17T17:44:16.550Z,1.00
2023-04-17T17:46:43.862Z,1.00
2023-04-17T17:49:10.870Z,1.00
2023-04-17T17:51:37.830Z,1.00
2023-04-17T17:54:04.745Z,1.00
2023-04-17T17:56:32.010Z,1.00
2023-04-17T17:58:58.952Z,1.00
2023-04-17T18:01:25.911Z,1.00
2023-04-17T18:03:53.491Z,1.00
2023-04-17T18:06:21.046Z,1.00
2023-04-17T18:08:48.112Z,1.00
2023-04-17T18:11:15.838Z,1.00
2023-04-17T18:13:43.239Z,1.00
2023-04-17T18:16:10.293Z,1.00
2023-04-17T18:18:37.410Z,1.00
2023-04-17T18:21:08.214Z,1.00
2023-04-17T18:23:35.691Z,1.00
2023-04-17T18:26:03.929Z,1.00
2023-04-17T18:28:31.049Z,1.00
2023-04-17T18:30:58.087Z,1.00
2023-04-17T18:33:26.121Z,1.00
2023-04-17T18:35:52.995Z,1.00
2023-04-17T18:38:20.979Z,1.00
2023-04-17T18:40:47.971Z,1.00
2023-04-17T18:43:15.528Z,1.00
2023-04-17T18:45:42.530Z,1.00
2023-04-17T18:48:09.503Z,1.00
2023-04-17T18:50:38.657Z,1.00
2023-04-17T18:53:05.684Z,1.00
2023-04-17T18:55:33.304Z,1.00
2023-04-17T18:58:01.354Z,1.00
2023-04-17T19:00:28.538Z,1.00
2023-04-17T19:02:56.304Z,1.00
2023-04-17T19:05:26.168Z,1.00
2023-04-17T19:07:54.152Z,1.00
2023-04-17T19:10:21.319Z,1.00
2023-04-17T19:12:48.198Z,1.00
2023-04-17T19:15:17.574Z,1.00
2023-04-17T19:17:44.494Z,1.00
2023-04-17T19:20:11.581Z,1.00
2023-04-17T19:22:38.733Z,1.00
2023-04-17T19:25:05.876Z,1.00
2023-04-17T19:27:32.824Z,1.00
2023-04-17T19:30:01.184Z,1.00
2023-04-17T19:32:29.818Z,1.00
2023-04-17T19:34:57.966Z,1.00
2023-04-17T19:37:24.853Z,1.00
2023-04-17T19:39:56.117Z,1.00
2023-04-17T19:42:23.602Z,1.00
2023-04-17T19:44:50.773Z,1.00
2023-04-17T19:47:17.656Z,1.00
2023-04-17T19:49:45.025Z,1.00
2023-04-17T19:52:12.430Z,1.00
2023-04-17T19:54:39.442Z,1.00
2023-04-17T19:57:06.500Z,1.00
2023-04-17T19:59:33.462Z,1.00
2023-04-17T20:02:00.419Z,1.00
2023-04-17T20:04:27.544Z,1.00
2023-04-17T20:06:54.609Z,1.00
2023-04-17T20:09:21.741Z,1.00
2023-04-17T20:11:49.964Z,1.00
2023-04-17T20:14:19.507Z,1.00
2023-04-17T20:16:47.267Z,1.00
2023-04-17T20:19:14.520Z,1.00
2023-04-17T20:21:42.563Z,1.00
2023-04-17T20:24:09.433Z,1.00
2023-04-17T20:26:37.574Z,1.00
2023-04-17T20:29:04.658Z,1.00
2023-04-17T20:31:36.602Z,1.00
2023-04-17T20:34:03.905Z,1.00
2023-04-17T20:36:31.398Z,1.00
2023-04-17T20:38:58.347Z,1.00
2023-04-17T20:41:25.294Z,1.00
2023-04-17T20:44:01.908Z,1.00
2023-04-17T20:46:29.291Z,1.00
2023-04-17T20:48:56.296Z,1.00
2023-04-17T20:51:27.611Z,1.00
2023-04-17T20:53:55.179Z,1.00
2023-04-17T20:56:22.160Z,1.00
2023-04-17T20:58:49.190Z,1.00
2023-04-17T21:01:16.929Z,1.00
2023-04-17T21:03:44.191Z,22.20
2023-04-17T21:06:11.386Z,8.30
2023-04-17T21:08:38.447Z,9.90
2023-04-17T21:11:05.482Z,10.10
2023-04-17T21:13:32.442Z,29.00
2023-04-17T21:15:59.456Z,35.70
2023-04-17T21:18:26.434Z,43.90
2023-04-17T21:20:53.366Z,55.40
2023-04-17T21:23:20.552Z,71.60
2023-04-17T21:25:47.724Z,71.70
2023-04-17T21:28:14.615Z,85.50
2023-04-17T21:30:41.526Z,91.30
2023-04-17T21:33:08.413Z,99.90
2023-04-17T21:35:36.538Z,99.90
2023-04-17T21:38:03.407Z,99.90
2023-04-17T21:40:33.429Z,99.90
2023-04-17T21:43:01.278Z,99.90
2023-04-17T21:45:28.229Z,99.90
2023-04-17T21:47:55.209Z,99.90
2023-04-17T21:50:22.166Z,99.90
2023-04-17T21:52:49.050Z,97.60
2023-04-17T21:55:16.093Z,94.60
2023-04-17T21:57:42.995Z,86.60
2023-04-17T22:00:12.600Z,87.60
2023-04-17T22:02:39.599Z,72.40
2023-04-17T22:05:06.841Z,59.30
2023-04-17T22:07:40.700Z,53.60
2023-04-17T22:10:14.643Z,44.70
2023-04-17T22:12:41.500Z,49.60
2023-04-17T22:15:09.005Z,43.20
2023-04-17T22:17:35.900Z,43.70
2023-04-17T22:20:03.503Z,45.20
2023-04-17T22:22:30.395Z,30.80
2023-04-17T22:24:57.274Z,25.40
2023-04-17T22:27:24.155Z,11.90
2023-04-17T22:29:51.047Z,2.30
2023-04-17T22:32:18.572Z,3.10
2023-04-17T22:34:49.772Z,1.00
2023-04-17T22:37:16.802Z,1.00
2023-04-17T22:39:43.817Z,1.00
2023-04-17T22:42:10.813Z,1.00
2023-04-17T22:44:37.738Z,1.00
2023-04-17T22:47:04.624Z,5.50
2023-04-17T22:49:32.567Z,1.00
2023-04-17T22:51:59.431Z,1.00
2023-04-17T22:54:26.386Z,1.00
2023-04-17T22:56:53.365Z,1.00
2023-04-17T22:59:20.229Z,1.00
2023-04-17T23:01:47.199Z,1.00
2023-04-17T23:04:14.287Z,1.00
2023-04-17T23:06:41.666Z,1.00
2023-04-17T23:09:08.636Z,1.00
2023-04-17T23:11:35.683Z,1.00
2023-04-17T23:14:03.217Z,1.00
2023-04-17T23:16:30.689Z,1.00
2023-04-17T23:18:57.650Z,1.00
2023-04-17T23:21:25.070Z,1.00
2023-04-17T23:23:52.174Z,1.00
2023-04-17T23:26:19.426Z,1.00
2023-04-17T23:28:46.385Z,1.00
2023-04-17T23:31:14.161Z,1.00
2023-04-17T23:33:41.271Z,1.00
2023-04-17T23:36:08.319Z,1.00
2023-04-17T23:38:35.261Z,1.00
2023-04-17T23:41:02.316Z,1.00
2023-04-17T23:43:29.266Z,1.00
2023-04-17T23:45:57.820Z,1.00
2023-04-17T23:48:24.762Z,1.00
2023-04-17T23:50:51.941Z,1.00
2023-04-17T23:53:18.944Z,1.00
2023-04-17T23:55:46.086Z,1.00
2023-04-17T23:58:13.033Z,1.00
